sensor_id;sensor_type;location;lat;lon;timestamp;temperature;humidity
45329;DHT22;72636;48.160;11.428;2024-03-17T00:01:01;9.10;99.90
45329;DHT22;72636;48.160;11.428;2024-03-17T00:03:27;9.10;99.90
45329;DHT22;72636;48.160;11.428;2024-03-17T00:06:00;9.10;99.90
45329;DHT22;72636;48.160;11.428;2024-03-17T00:08:26;9.10;99.90
45329;DHT22;72636;48.160;11.428;2024-03-17T00:10:56;9.10;99.90
45329;DHT22;72636;48.160;11.428;2024-03-17T00:13:23;9.10;99.90
45329;DHT22;72636;48.160;11.428;2024-03-17T00:15:50;9.10;99.90
45329;DHT22;72636;48.160;11.428;2024-03-17T00:18:16;9.10;99.90
45329;DHT22;72636;48.160;11.428;2024-03-17T00:20:42;9.10;99.90
45329;DHT22;72636;48.160;11.428;2024-03-17T00:23:09;9.10;99.90
45329;DHT22;72636;48.160;11.428;2024-03-17T00:25:37;9.10;99.90
45329;DHT22;72636;48.160;11.428;2024-03-17T00:28:03;9.10;99.90
45329;DHT22;72636;48.160;11.428;2024-03-17T00:30:29;9.10;99.90
45329;DHT22;72636;48.160;11.428;2024-03-17T00:32:57;9.10;99.90
45329;DHT22;72636;48.160;11.428;2024-03-17T00:35:23;9.10;99.90
45329;DHT22;72636;48.160;11.428;2024-03-17T00:37:50;9.10;99.90
45329;DHT22;72636;48.160;11.428;2024-03-17T00:40:17;9.10;99.90
45329;DHT22;72636;48.160;11.428;2024-03-17T00:42:43;9.10;99.90
45329;DHT22;72636;48.160;11.428;2024-03-17T00:45:10;9.10;99.90
45329;DHT22;72636;48.160;11.428;2024-03-17T00:47:36;9.10;99.90
45329;DHT22;72636;48.160;11.428;2024-03-17T00:50:03;9.10;99.90
45329;DHT22;72636;48.160;11.428;2024-03-17T00:52:29;9.10;99.90
45329;DHT22;72636;48.160;11.428;2024-03-17T00:54:56;9.10;99.90
45329;DHT22;72636;48.160;11.428;2024-03-17T00:57:22;9.10;99.90
45329;DHT22;72636;48.160;11.428;2024-03-17T00:59:48;9.10;99.90
45329;DHT22;72636;48.160;11.428;2024-03-17T01:02:17;9.00;99.90
45329;DHT22;72636;48.160;11.428;2024-03-17T01:04:43;9.10;99.90
45329;DHT22;72636;48.160;11.428;2024-03-17T01:07:09;9.00;99.90
45329;DHT22;72636;48.160;11.428;2024-03-17T01:09:35;9.00;99.90
45329;DHT22;72636;48.160;11.428;2024-03-17T01:12:01;9.00;99.90
45329;DHT22;72636;48.160;11.428;2024-03-17T01:14:28;9.00;99.90
45329;DHT22;72636;48.160;11.428;2024-03-17T01:16:54;9.00;99.90
45329;DHT22;72636;48.160;11.428;2024-03-17T01:19:20;9.00;99.90
45329;DHT22;72636;48.160;11.428;2024-03-17T01:21:46;9.00;99.90
45329;DHT22;72636;48.160;11.428;2024-03-17T01:24:12;9.00;99.90
45329;DHT22;72636;48.160;11.428;2024-03-17T01:26:38;9.00;99.90
45329;DHT22;72636;48.160;11.428;2024-03-17T01:29:04;8.90;99.90
45329;DHT22;72636;48.160;11.428;2024-03-17T01:31:30;8.80;99.90
45329;DHT22;72636;48.160;11.428;2024-03-17T01:33:56;8.80;99.90
45329;DHT22;72636;48.160;11.428;2024-03-17T01:36:22;8.80;99.90
45329;DHT22;72636;48.160;11.428;2024-03-17T01:38:47;8.70;99.90
45329;DHT22;72636;48.160;11.428;2024-03-17T01:41:13;8.60;99.90
45329;DHT22;72636;48.160;11.428;2024-03-17T01:43:40;8.50;99.90
45329;DHT22;72636;48.160;11.428;2024-03-17T01:46:08;8.50;99.90
45329;DHT22;72636;48.160;11.428;2024-03-17T01:48:37;8.50;99.90
45329;DHT22;72636;48.160;11.428;2024-03-17T01:51:03;8.50;99.90
45329;DHT22;72636;48.160;11.428;2024-03-17T01:53:29;8.50;99.90
45329;DHT22;72636;48.160;11.428;2024-03-17T01:55:57;8.50;99.90
45329;DHT22;72636;48.160;11.428;2024-03-17T01:58:27;8.50;99.90
45329;DHT22;72636;48.160;11.428;2024-03-17T02:00:56;8.40;99.90
45329;DHT22;72636;48.160;11.428;2024-03-17T02:03:22;8.40;99.90
45329;DHT22;72636;48.160;11.428;2024-03-17T02:05:48;8.40;99.90
45329;DHT22;72636;48.160;11.428;2024-03-17T02:08:14;8.40;99.90
45329;DHT22;72636;48.160;11.428;2024-03-17T02:10:40;8.40;99.90
45329;DHT22;72636;48.160;11.428;2024-03-17T02:13:05;8.30;99.90
45329;DHT22;72636;48.160;11.428;2024-03-17T02:15:32;8.30;99.90
45329;DHT22;72636;48.160;11.428;2024-03-17T02:17:58;8.30;99.90
45329;DHT22;72636;48.160;11.428;2024-03-17T02:20:24;8.40;99.90
45329;DHT22;72636;48.160;11.428;2024-03-17T02:23:08;8.40;99.90
45329;DHT22;72636;48.160;11.428;2024-03-17T02:25:34;8.40;99.90
45329;DHT22;72636;48.160;11.428;2024-03-17T02:28:01;8.40;99.90
45329;DHT22;72636;48.160;11.428;2024-03-17T02:30:27;8.40;99.90
45329;DHT22;72636;48.160;11.428;2024-03-17T02:32:53;8.40;99.90
45329;DHT22;72636;48.160;11.428;2024-03-17T02:35:26;8.40;99.90
45329;DHT22;72636;48.160;11.428;2024-03-17T02:37:52;8.40;99.90
45329;DHT22;72636;48.160;11.428;2024-03-17T02:40:17;8.40;99.90
45329;DHT22;72636;48.160;11.428;2024-03-17T02:42:44;8.40;99.90
45329;DHT22;72636;48.160;11.428;2024-03-17T02:45:11;8.40;99.90
45329;DHT22;72636;48.160;11.428;2024-03-17T02:47:40;8.40;99.90
45329;DHT22;72636;48.160;11.428;2024-03-17T02:50:07;8.40;99.90
45329;DHT22;72636;48.160;11.428;2024-03-17T02:52:33;8.40;99.90
45329;DHT22;72636;48.160;11.428;2024-03-17T02:54:59;7.50;99.90
45329;DHT22;72636;48.160;11.428;2024-03-17T02:57:25;8.40;99.90
45329;DHT22;72636;48.160;11.428;2024-03-17T02:59:55;8.40;99.90
45329;DHT22;72636;48.160;11.428;2024-03-17T03:02:21;8.40;99.90
45329;DHT22;72636;48.160;11.428;2024-03-17T03:04:46;8.30;99.90
45329;DHT22;72636;48.160;11.428;2024-03-17T03:07:12;8.30;99.90
45329;DHT22;72636;48.160;11.428;2024-03-17T03:09:38;8.30;99.90
45329;DHT22;72636;48.160;11.428;2024-03-17T03:12:04;8.30;99.90
45329;DHT22;72636;48.160;11.428;2024-03-17T03:14:30;8.30;99.90
45329;DHT22;72636;48.160;11.428;2024-03-17T03:16:57;8.30;99.90
45329;DHT22;72636;48.160;11.428;2024-03-17T03:19:24;8.30;99.90
45329;DHT22;72636;48.160;11.428;2024-03-17T03:21:50;8.30;99.90
45329;DHT22;72636;48.160;11.428;2024-03-17T03:24:16;8.30;99.90
45329;DHT22;72636;48.160;11.428;2024-03-17T03:26:42;8.30;99.90
45329;DHT22;72636;48.160;11.428;2024-03-17T03:29:09;8.30;99.90
45329;DHT22;72636;48.160;11.428;2024-03-17T03:31:36;8.30;99.90
45329;DHT22;72636;48.160;11.428;2024-03-17T03:34:04;8.30;99.90
45329;DHT22;72636;48.160;11.428;2024-03-17T03:36:33;8.30;99.90
45329;DHT22;72636;48.160;11.428;2024-03-17T03:38:59;8.30;99.90
45329;DHT22;72636;48.160;11.428;2024-03-17T03:41:25;8.30;99.90
45329;DHT22;72636;48.160;11.428;2024-03-17T03:43:50;8.30;99.90
45329;DHT22;72636;48.160;11.428;2024-03-17T03:46:17;8.30;99.90
45329;DHT22;72636;48.160;11.428;2024-03-17T03:48:42;8.30;99.90
45329;DHT22;72636;48.160;11.428;2024-03-17T03:51:09;8.30;99.90
45329;DHT22;72636;48.160;11.428;2024-03-17T03:53:37;8.30;99.90
45329;DHT22;72636;48.160;11.428;2024-03-17T03:56:05;8.20;99.90
45329;DHT22;72636;48.160;11.428;2024-03-17T03:58:36;8.20;99.90
45329;DHT22;72636;48.160;11.428;2024-03-17T04:01:06;8.20;99.90
45329;DHT22;72636;48.160;11.428;2024-03-17T04:03:36;8.20;99.90
45329;DHT22;72636;48.160;11.428;2024-03-17T04:06:11;8.20;99.90
45329;DHT22;72636;48.160;11.428;2024-03-17T04:08:38;8.20;99.90
45329;DHT22;72636;48.160;11.428;2024-03-17T04:11:05;8.20;99.90
45329;DHT22;72636;48.160;11.428;2024-03-17T04:13:31;8.10;99.90
45329;DHT22;72636;48.160;11.428;2024-03-17T04:16:07;8.10;99.90
45329;DHT22;72636;48.160;11.428;2024-03-17T04:18:33;8.10;99.90
45329;DHT22;72636;48.160;11.428;2024-03-17T04:21:04;8.10;99.90
45329;DHT22;72636;48.160;11.428;2024-03-17T04:23:30;8.10;99.90
45329;DHT22;72636;48.160;11.428;2024-03-17T04:26:00;8.10;99.90
45329;DHT22;72636;48.160;11.428;2024-03-17T04:28:26;8.10;99.90
45329;DHT22;72636;48.160;11.428;2024-03-17T04:30:52;8.10;99.90
45329;DHT22;72636;48.160;11.428;2024-03-17T04:33:18;8.10;99.90
45329;DHT22;72636;48.160;11.428;2024-03-17T04:35:44;8.10;99.90
45329;DHT22;72636;48.160;11.428;2024-03-17T04:38:10;8.10;99.90
45329;DHT22;72636;48.160;11.428;2024-03-17T04:40:42;8.10;99.90
45329;DHT22;72636;48.160;11.428;2024-03-17T04:43:08;8.10;99.90
45329;DHT22;72636;48.160;11.428;2024-03-17T04:45:34;8.10;99.90
45329;DHT22;72636;48.160;11.428;2024-03-17T04:48:00;8.10;99.90
45329;DHT22;72636;48.160;11.428;2024-03-17T04:50:26;8.10;99.90
45329;DHT22;72636;48.160;11.428;2024-03-17T04:52:57;8.10;99.90
45329;DHT22;72636;48.160;11.428;2024-03-17T04:55:24;8.10;99.90
45329;DHT22;72636;48.160;11.428;2024-03-17T04:57:49;8.10;99.90
45329;DHT22;72636;48.160;11.428;2024-03-17T05:00:15;8.10;99.90
45329;DHT22;72636;48.160;11.428;2024-03-17T05:02:43;8.10;99.90
45329;DHT22;72636;48.160;11.428;2024-03-17T05:05:09;8.10;99.90
45329;DHT22;72636;48.160;11.428;2024-03-17T05:07:38;8.10;99.90
45329;DHT22;72636;48.160;11.428;2024-03-17T05:10:05;8.10;99.90
45329;DHT22;72636;48.160;11.428;2024-03-17T05:12:31;8.10;99.90
45329;DHT22;72636;48.160;11.428;2024-03-17T05:14:57;8.10;99.90
45329;DHT22;72636;48.160;11.428;2024-03-17T05:17:22;8.10;99.90
45329;DHT22;72636;48.160;11.428;2024-03-17T05:19:48;8.10;99.90
45329;DHT22;72636;48.160;11.428;2024-03-17T05:22:14;8.10;99.90
45329;DHT22;72636;48.160;11.428;2024-03-17T05:24:39;8.10;99.90
45329;DHT22;72636;48.160;11.428;2024-03-17T05:27:05;8.10;99.90
45329;DHT22;72636;48.160;11.428;2024-03-17T05:29:31;8.10;99.90
45329;DHT22;72636;48.160;11.428;2024-03-17T05:31:57;8.10;99.90
45329;DHT22;72636;48.160;11.428;2024-03-17T05:34:22;8.10;99.90
45329;DHT22;72636;48.160;11.428;2024-03-17T05:36:50;8.10;99.90
45329;DHT22;72636;48.160;11.428;2024-03-17T05:39:16;8.10;99.90
45329;DHT22;72636;48.160;11.428;2024-03-17T05:41:42;8.00;99.90
45329;DHT22;72636;48.160;11.428;2024-03-17T05:44:09;8.10;99.90
45329;DHT22;72636;48.160;11.428;2024-03-17T05:46:35;8.10;99.90
45329;DHT22;72636;48.160;11.428;2024-03-17T05:49:01;8.10;99.90
45329;DHT22;72636;48.160;11.428;2024-03-17T05:51:26;8.10;99.90
45329;DHT22;72636;48.160;11.428;2024-03-17T05:53:53;8.10;99.90
45329;DHT22;72636;48.160;11.428;2024-03-17T05:56:19;8.10;99.90
45329;DHT22;72636;48.160;11.428;2024-03-17T05:58:44;8.20;99.90
45329;DHT22;72636;48.160;11.428;2024-03-17T06:01:10;8.20;99.90
45329;DHT22;72636;48.160;11.428;2024-03-17T06:03:37;8.20;99.90
45329;DHT22;72636;48.160;11.428;2024-03-17T06:06:04;8.20;99.90
45329;DHT22;72636;48.160;11.428;2024-03-17T06:08:30;8.20;99.90
45329;DHT22;72636;48.160;11.428;2024-03-17T06:10:56;8.20;99.90
45329;DHT22;72636;48.160;11.428;2024-03-17T06:13:28;8.30;99.90
45329;DHT22;72636;48.160;11.428;2024-03-17T06:15:54;8.30;99.90
45329;DHT22;72636;48.160;11.428;2024-03-17T06:18:20;8.30;99.90
45329;DHT22;72636;48.160;11.428;2024-03-17T06:20:47;8.30;99.90
45329;DHT22;72636;48.160;11.428;2024-03-17T06:23:14;8.40;99.90
45329;DHT22;72636;48.160;11.428;2024-03-17T06:25:42;8.40;99.90
45329;DHT22;72636;48.160;11.428;2024-03-17T06:28:09;8.40;99.90
45329;DHT22;72636;48.160;11.428;2024-03-17T06:30:46;8.50;99.90
45329;DHT22;72636;48.160;11.428;2024-03-17T06:33:16;8.50;99.90
45329;DHT22;72636;48.160;11.428;2024-03-17T06:35:46;8.50;99.90
45329;DHT22;72636;48.160;11.428;2024-03-17T06:38:15;8.60;99.90
45329;DHT22;72636;48.160;11.428;2024-03-17T06:40:41;8.60;99.90
45329;DHT22;72636;48.160;11.428;2024-03-17T06:43:07;8.70;99.90
45329;DHT22;72636;48.160;11.428;2024-03-17T06:45:33;8.70;99.90
45329;DHT22;72636;48.160;11.428;2024-03-17T06:47:59;8.80;99.90
45329;DHT22;72636;48.160;11.428;2024-03-17T06:50:25;8.80;99.90
45329;DHT22;72636;48.160;11.428;2024-03-17T06:52:51;8.90;99.90
45329;DHT22;72636;48.160;11.428;2024-03-17T06:55:19;8.90;99.90
45329;DHT22;72636;48.160;11.428;2024-03-17T06:57:47;8.90;99.90
45329;DHT22;72636;48.160;11.428;2024-03-17T07:00:13;9.00;99.90
45329;DHT22;72636;48.160;11.428;2024-03-17T07:02:43;9.00;99.90
45329;DHT22;72636;48.160;11.428;2024-03-17T07:05:13;9.10;99.90
45329;DHT22;72636;48.160;11.428;2024-03-17T07:07:43;9.10;99.90
45329;DHT22;72636;48.160;11.428;2024-03-17T07:10:09;9.20;99.90
45329;DHT22;72636;48.160;11.428;2024-03-17T07:12:40;9.30;99.90
45329;DHT22;72636;48.160;11.428;2024-03-17T07:15:07;9.40;99.90
45329;DHT22;72636;48.160;11.428;2024-03-17T07:17:33;9.50;99.90
45329;DHT22;72636;48.160;11.428;2024-03-17T07:20:00;9.50;99.90
45329;DHT22;72636;48.160;11.428;2024-03-17T07:22:25;9.60;99.90
45329;DHT22;72636;48.160;11.428;2024-03-17T07:24:54;9.60;99.90
45329;DHT22;72636;48.160;11.428;2024-03-17T07:27:27;9.70;99.90
45329;DHT22;72636;48.160;11.428;2024-03-17T07:29:53;9.70;99.90
45329;DHT22;72636;48.160;11.428;2024-03-17T07:32:19;9.70;99.90
45329;DHT22;72636;48.160;11.428;2024-03-17T07:34:44;9.80;99.90
45329;DHT22;72636;48.160;11.428;2024-03-17T07:37:10;9.90;99.90
45329;DHT22;72636;48.160;11.428;2024-03-17T07:39:36;10.00;99.90
45329;DHT22;72636;48.160;11.428;2024-03-17T07:42:02;10.10;99.90
45329;DHT22;72636;48.160;11.428;2024-03-17T07:44:28;10.20;99.90
45329;DHT22;72636;48.160;11.428;2024-03-17T07:47:02;10.30;99.90
45329;DHT22;72636;48.160;11.428;2024-03-17T07:49:31;10.40;99.90
45329;DHT22;72636;48.160;11.428;2024-03-17T07:51:57;10.50;99.90
45329;DHT22;72636;48.160;11.428;2024-03-17T07:54:24;10.50;99.90
45329;DHT22;72636;48.160;11.428;2024-03-17T07:56:50;10.60;99.90
45329;DHT22;72636;48.160;11.428;2024-03-17T07:59:16;10.70;99.90
45329;DHT22;72636;48.160;11.428;2024-03-17T08:01:44;10.80;99.90
45329;DHT22;72636;48.160;11.428;2024-03-17T08:04:09;10.90;99.90
45329;DHT22;72636;48.160;11.428;2024-03-17T08:06:38;11.00;99.90
45329;DHT22;72636;48.160;11.428;2024-03-17T08:09:04;11.00;99.90
45329;DHT22;72636;48.160;11.428;2024-03-17T08:11:29;11.20;99.90
45329;DHT22;72636;48.160;11.428;2024-03-17T08:13:56;11.20;99.90
45329;DHT22;72636;48.160;11.428;2024-03-17T08:16:21;11.30;99.90
45329;DHT22;72636;48.160;11.428;2024-03-17T08:18:47;11.40;99.90
45329;DHT22;72636;48.160;11.428;2024-03-17T08:21:13;11.50;99.90
45329;DHT22;72636;48.160;11.428;2024-03-17T08:23:39;11.60;99.90
45329;DHT22;72636;48.160;11.428;2024-03-17T08:26:07;11.70;99.90
45329;DHT22;72636;48.160;11.428;2024-03-17T08:28:34;11.80;99.90
45329;DHT22;72636;48.160;11.428;2024-03-17T08:31:03;11.90;99.90
45329;DHT22;72636;48.160;11.428;2024-03-17T08:33:30;12.00;99.90
45329;DHT22;72636;48.160;11.428;2024-03-17T08:36:06;12.10;99.90
45329;DHT22;72636;48.160;11.428;2024-03-17T08:38:33;12.20;99.90
45329;DHT22;72636;48.160;11.428;2024-03-17T08:43:30;12.40;99.90
45329;DHT22;72636;48.160;11.428;2024-03-17T08:48:24;12.60;99.90
45329;DHT22;72636;48.160;11.428;2024-03-17T08:50:51;12.70;99.90
45329;DHT22;72636;48.160;11.428;2024-03-17T08:53:18;12.80;99.90
45329;DHT22;72636;48.160;11.428;2024-03-17T08:55:43;12.80;99.90
45329;DHT22;72636;48.160;11.428;2024-03-17T08:58:10;12.90;99.90
45329;DHT22;72636;48.160;11.428;2024-03-17T09:00:36;12.90;99.90
45329;DHT22;72636;48.160;11.428;2024-03-17T09:03:02;13.00;99.90
45329;DHT22;72636;48.160;11.428;2024-03-17T09:05:28;13.00;99.90
45329;DHT22;72636;48.160;11.428;2024-03-17T09:07:54;13.00;99.90
45329;DHT22;72636;48.160;11.428;2024-03-17T09:10:21;13.10;99.90
45329;DHT22;72636;48.160;11.428;2024-03-17T09:12:47;13.10;99.90
45329;DHT22;72636;48.160;11.428;2024-03-17T09:15:13;13.10;99.90
45329;DHT22;72636;48.160;11.428;2024-03-17T09:17:40;13.10;99.90
45329;DHT22;72636;48.160;11.428;2024-03-17T09:20:06;13.20;99.90
45329;DHT22;72636;48.160;11.428;2024-03-17T09:22:37;13.30;99.90
45329;DHT22;72636;48.160;11.428;2024-03-17T09:25:07;13.40;99.90
45329;DHT22;72636;48.160;11.428;2024-03-17T09:27:34;14.00;99.90
45329;DHT22;72636;48.160;11.428;2024-03-17T09:30:00;13.60;99.90
45329;DHT22;72636;48.160;11.428;2024-03-17T09:32:26;13.70;99.90
45329;DHT22;72636;48.160;11.428;2024-03-17T09:34:52;13.80;99.90
45329;DHT22;72636;48.160;11.428;2024-03-17T09:37:17;14.10;99.90
45329;DHT22;72636;48.160;11.428;2024-03-17T09:39:47;14.40;99.90
45329;DHT22;72636;48.160;11.428;2024-03-17T09:42:19;14.70;99.90
45329;DHT22;72636;48.160;11.428;2024-03-17T09:44:48;14.90;99.90
45329;DHT22;72636;48.160;11.428;2024-03-17T09:47:20;15.30;99.90
45329;DHT22;72636;48.160;11.428;2024-03-17T09:49:47;15.70;99.90
45329;DHT22;72636;48.160;11.428;2024-03-17T09:52:21;15.80;99.90
45329;DHT22;72636;48.160;11.428;2024-03-17T09:54:59;15.70;99.90
45329;DHT22;72636;48.160;11.428;2024-03-17T09:57:26;15.70;99.90
45329;DHT22;72636;48.160;11.428;2024-03-17T09:59:55;15.90;99.90
45329;DHT22;72636;48.160;11.428;2024-03-17T10:02:22;16.00;99.90
45329;DHT22;72636;48.160;11.428;2024-03-17T10:04:48;16.10;99.90
45329;DHT22;72636;48.160;11.428;2024-03-17T10:07:14;16.10;99.90
45329;DHT22;72636;48.160;11.428;2024-03-17T10:09:42;16.20;99.90
45329;DHT22;72636;48.160;11.428;2024-03-17T10:12:29;16.10;99.90
45329;DHT22;72636;48.160;11.428;2024-03-17T10:14:59;16.10;99.90
45329;DHT22;72636;48.160;11.428;2024-03-17T10:17:32;16.20;99.90
45329;DHT22;72636;48.160;11.428;2024-03-17T10:20:17;16.30;99.90
45329;DHT22;72636;48.160;11.428;2024-03-17T10:23:03;16.20;99.90
45329;DHT22;72636;48.160;11.428;2024-03-17T10:25:31;16.20;99.90
45329;DHT22;72636;48.160;11.428;2024-03-17T10:27:57;16.40;99.90
45329;DHT22;72636;48.160;11.428;2024-03-17T10:30:24;16.70;99.90
45329;DHT22;72636;48.160;11.428;2024-03-17T10:32:58;16.90;99.90
45329;DHT22;72636;48.160;11.428;2024-03-17T10:35:36;17.10;99.90
45329;DHT22;72636;48.160;11.428;2024-03-17T10:38:07;17.40;99.20
45329;DHT22;72636;48.160;11.428;2024-03-17T10:40:34;17.50;99.20
45329;DHT22;72636;48.160;11.428;2024-03-17T10:43:04;18.00;99.90
45329;DHT22;72636;48.160;11.428;2024-03-17T10:45:32;18.20;99.70
45329;DHT22;72636;48.160;11.428;2024-03-17T10:48:08;18.70;99.90
45329;DHT22;72636;48.160;11.428;2024-03-17T10:50:38;19.00;96.20
45329;DHT22;72636;48.160;11.428;2024-03-17T10:53:06;19.60;96.20
45329;DHT22;72636;48.160;11.428;2024-03-17T10:56:04;20.20;90.50
45329;DHT22;72636;48.160;11.428;2024-03-17T10:58:35;21.10;77.50
45329;DHT22;72636;48.160;11.428;2024-03-17T11:01:04;21.90;80.20
45329;DHT22;72636;48.160;11.428;2024-03-17T11:03:34;22.20;66.30
45329;DHT22;72636;48.160;11.428;2024-03-17T11:06:02;22.30;45.60
45329;DHT22;72636;48.160;11.428;2024-03-17T11:08:30;22.90;44.70
45329;DHT22;72636;48.160;11.428;2024-03-17T11:10:57;23.40;40.80
45329;DHT22;72636;48.160;11.428;2024-03-17T11:13:31;24.00;38.30
45329;DHT22;72636;48.160;11.428;2024-03-17T11:15:58;24.40;36.30
45329;DHT22;72636;48.160;11.428;2024-03-17T11:18:37;24.60;37.20
45329;DHT22;72636;48.160;11.428;2024-03-17T11:21:04;24.50;33.00
45329;DHT22;72636;48.160;11.428;2024-03-17T11:23:36;24.60;32.20
45329;DHT22;72636;48.160;11.428;2024-03-17T11:26:06;24.50;38.40
45329;DHT22;72636;48.160;11.428;2024-03-17T11:31:32;24.40;33.50
45329;DHT22;72636;48.160;11.428;2024-03-17T11:33:59;24.70;31.10
45329;DHT22;72636;48.160;11.428;2024-03-17T11:41:38;24.50;28.50
45329;DHT22;72636;48.160;11.428;2024-03-17T11:46:56;24.10;30.00
45329;DHT22;72636;48.160;11.428;2024-03-17T11:51:57;24.50;30.30
45329;DHT22;72636;48.160;11.428;2024-03-17T11:54:24;24.40;28.10
45329;DHT22;72636;48.160;11.428;2024-03-17T11:56:53;24.10;29.60
45329;DHT22;72636;48.160;11.428;2024-03-17T11:59:20;24.10;28.90
45329;DHT22;72636;48.160;11.428;2024-03-17T12:01:47;24.10;32.50
45329;DHT22;72636;48.160;11.428;2024-03-17T12:04:17;24.70;34.90
45329;DHT22;72636;48.160;11.428;2024-03-17T12:06:56;24.70;28.30
45329;DHT22;72636;48.160;11.428;2024-03-17T12:09:25;25.00;31.60
45329;DHT22;72636;48.160;11.428;2024-03-17T12:12:02;25.30;30.90
45329;DHT22;72636;48.160;11.428;2024-03-17T12:14:29;25.30;29.20
45329;DHT22;72636;48.160;11.428;2024-03-17T12:19:23;24.70;28.50
45329;DHT22;72636;48.160;11.428;2024-03-17T12:21:53;24.40;28.20
45329;DHT22;72636;48.160;11.428;2024-03-17T12:24:21;24.40;31.10
45329;DHT22;72636;48.160;11.428;2024-03-17T12:26:49;24.00;30.30
45329;DHT22;72636;48.160;11.428;2024-03-17T12:31:54;23.30;30.00
45329;DHT22;72636;48.160;11.428;2024-03-17T12:34:21;23.10;32.90
45329;DHT22;72636;48.160;11.428;2024-03-17T12:36:48;23.20;31.50
45329;DHT22;72636;48.160;11.428;2024-03-17T12:39:20;23.20;30.40
45329;DHT22;72636;48.160;11.428;2024-03-17T12:42:10;23.10;32.20
45329;DHT22;72636;48.160;11.428;2024-03-17T12:44:37;23.20;42.00
45329;DHT22;72636;48.160;11.428;2024-03-17T12:47:14;23.10;35.90
45329;DHT22;72636;48.160;11.428;2024-03-17T12:49:49;22.80;39.30
45329;DHT22;72636;48.160;11.428;2024-03-17T12:52:19;22.20;34.90
45329;DHT22;72636;48.160;11.428;2024-03-17T12:54:45;21.70;34.90
45329;DHT22;72636;48.160;11.428;2024-03-17T12:57:41;21.60;41.00
45329;DHT22;72636;48.160;11.428;2024-03-17T13:00:25;21.70;38.80
45329;DHT22;72636;48.160;11.428;2024-03-17T13:02:58;21.60;35.50
45329;DHT22;72636;48.160;11.428;2024-03-17T13:05:23;21.40;35.10
45329;DHT22;72636;48.160;11.428;2024-03-17T13:07:50;21.20;36.70
45329;DHT22;72636;48.160;11.428;2024-03-17T13:10:16;21.00;39.20
45329;DHT22;72636;48.160;11.428;2024-03-17T13:12:46;20.90;44.70
45329;DHT22;72636;48.160;11.428;2024-03-17T13:15:16;20.70;40.90
45329;DHT22;72636;48.160;11.428;2024-03-17T13:17:43;20.70;39.50
45329;DHT22;72636;48.160;11.428;2024-03-17T13:20:15;20.40;43.30
45329;DHT22;72636;48.160;11.428;2024-03-17T13:22:45;20.40;43.00
45329;DHT22;72636;48.160;11.428;2024-03-17T13:25:18;20.50;47.90
45329;DHT22;72636;48.160;11.428;2024-03-17T13:27:47;20.50;48.30
45329;DHT22;72636;48.160;11.428;2024-03-17T13:30:15;20.60;47.50
45329;DHT22;72636;48.160;11.428;2024-03-17T13:32:41;20.60;44.00
45329;DHT22;72636;48.160;11.428;2024-03-17T13:35:18;20.60;45.70
45329;DHT22;72636;48.160;11.428;2024-03-17T13:37:48;20.30;44.40
45329;DHT22;72636;48.160;11.428;2024-03-17T13:40:15;20.20;49.80
45329;DHT22;72636;48.160;11.428;2024-03-17T13:42:47;20.10;54.20
45329;DHT22;72636;48.160;11.428;2024-03-17T13:45:14;19.90;49.30
45329;DHT22;72636;48.160;11.428;2024-03-17T13:47:42;19.90;49.70
45329;DHT22;72636;48.160;11.428;2024-03-17T13:50:09;19.70;49.50
45329;DHT22;72636;48.160;11.428;2024-03-17T13:52:42;19.40;48.10
45329;DHT22;72636;48.160;11.428;2024-03-17T13:55:21;19.30;52.60
45329;DHT22;72636;48.160;11.428;2024-03-17T13:57:50;19.40;52.60
45329;DHT22;72636;48.160;11.428;2024-03-17T14:00:17;19.50;55.30
45329;DHT22;72636;48.160;11.428;2024-03-17T14:02:49;19.40;53.70
45329;DHT22;72636;48.160;11.428;2024-03-17T14:05:17;19.40;58.20
45329;DHT22;72636;48.160;11.428;2024-03-17T14:07:43;19.40;53.80
45329;DHT22;72636;48.160;11.428;2024-03-17T14:10:15;19.30;51.40
45329;DHT22;72636;48.160;11.428;2024-03-17T14:12:42;19.30;53.10
45329;DHT22;72636;48.160;11.428;2024-03-17T14:15:08;19.20;56.50
45329;DHT22;72636;48.160;11.428;2024-03-17T14:17:38;19.20;55.00
45329;DHT22;72636;48.160;11.428;2024-03-17T14:20:05;19.10;54.10
45329;DHT22;72636;48.160;11.428;2024-03-17T14:22:31;19.00;56.10
45329;DHT22;72636;48.160;11.428;2024-03-17T14:24:57;18.90;63.90
45329;DHT22;72636;48.160;11.428;2024-03-17T14:27:23;18.80;68.90
45329;DHT22;72636;48.160;11.428;2024-03-17T14:29:50;18.60;58.30
45329;DHT22;72636;48.160;11.428;2024-03-17T14:32:16;18.50;77.60
45329;DHT22;72636;48.160;11.428;2024-03-17T14:34:42;18.30;62.80
45329;DHT22;72636;48.160;11.428;2024-03-17T14:37:08;18.20;66.60
45329;DHT22;72636;48.160;11.428;2024-03-17T14:39:34;18.10;66.60
45329;DHT22;72636;48.160;11.428;2024-03-17T14:41:59;18.00;63.50
45329;DHT22;72636;48.160;11.428;2024-03-17T14:44:25;17.90;64.90
45329;DHT22;72636;48.160;11.428;2024-03-17T14:46:51;17.70;74.90
45329;DHT22;72636;48.160;11.428;2024-03-17T14:49:17;17.60;69.30
45329;DHT22;72636;48.160;11.428;2024-03-17T14:51:43;17.50;72.00
45329;DHT22;72636;48.160;11.428;2024-03-17T14:54:09;17.30;68.00
45329;DHT22;72636;48.160;11.428;2024-03-17T14:56:35;17.20;70.60
45329;DHT22;72636;48.160;11.428;2024-03-17T14:59:01;17.00;74.20
45329;DHT22;72636;48.160;11.428;2024-03-17T15:01:27;16.90;79.90
45329;DHT22;72636;48.160;11.428;2024-03-17T15:03:55;17.00;84.10
45329;DHT22;72636;48.160;11.428;2024-03-17T15:06:21;16.90;82.80
45329;DHT22;72636;48.160;11.428;2024-03-17T15:08:47;16.70;83.50
45329;DHT22;72636;48.160;11.428;2024-03-17T15:11:13;16.50;83.40
45329;DHT22;72636;48.160;11.428;2024-03-17T15:13:39;16.50;88.30
45329;DHT22;72636;48.160;11.428;2024-03-17T15:16:08;16.40;81.90
45329;DHT22;72636;48.160;11.428;2024-03-17T15:18:34;16.40;82.60
45329;DHT22;72636;48.160;11.428;2024-03-17T15:21:03;16.30;90.50
45329;DHT22;72636;48.160;11.428;2024-03-17T15:23:32;16.30;92.00
45329;DHT22;72636;48.160;11.428;2024-03-17T15:26:01;16.20;91.40
45329;DHT22;72636;48.160;11.428;2024-03-17T15:28:35;16.20;91.80
45329;DHT22;72636;48.160;11.428;2024-03-17T15:31:05;16.20;94.80
45329;DHT22;72636;48.160;11.428;2024-03-17T15:33:32;16.10;93.40
45329;DHT22;72636;48.160;11.428;2024-03-17T15:36:01;16.10;93.30
45329;DHT22;72636;48.160;11.428;2024-03-17T15:38:33;16.10;94.20
45329;DHT22;72636;48.160;11.428;2024-03-17T15:43:32;16.00;93.10
45329;DHT22;72636;48.160;11.428;2024-03-17T15:46:02;15.90;93.80
45329;DHT22;72636;48.160;11.428;2024-03-17T15:48:28;15.90;94.60
45329;DHT22;72636;48.160;11.428;2024-03-17T15:50:57;15.90;97.90
45329;DHT22;72636;48.160;11.428;2024-03-17T15:53:24;15.80;96.70